Tiempo atmosférico en la estación meteorológica de Ejea De Los Caballeros, Zaragoza (321 m.)



Fecha
DESCASC
Temp. máxima en grados centígrados (hora)
DESCASC
Temp. mínima en grados centígrados (hora)
DESCASC
Temp. media en grados centígrados
DESCASC
Racha de viento máxima en m/sg (hora)
DESCASC
Velocidad máxima media en intervalos de 10 minutos(hora)
DESCASC
Precipitaciones diarias en mm
DESCASC
Precipitaciones de 00:00 a 06:00 en mm
DESCASC
Precipitaciones de 06:00 a 12:00 en mm
DESCASC
Precipitaciones de 12:00 a 18:00 en mm
DESCASC
Precipitaciones de 18:00 a 24:00 en mm
DESCASC
27-10-2020 16.3 (15:40) 2.5 (07:10) 9.4 2.78 (15:50) 1.11 (15:50) 0 0 0 0 0
26-10-2020 15.1 (16:30) 5.6 (23:59) 10.4 11.11 (16:40) 4.17 (16:50) 0 0 0 0 0
25-10-2020 18 (13:00) 8.7 (07:50) 13.3 9.44 (18:30) 3.89 (18:30) 3.2 0 0 0 3.2
24-10-2020 19.5 (16:10) 4.7 (00:00) 12.1 3.33 (17:10) 1.39 (23:30) 0 0 0 0 0
23-10-2020 19.7 (14:00) 9.1 (00:00) 14.4 4.44 (16:00) 2.5 (16:00) 0 0 0 0 0
22-10-2020 21.2 (14:10) 14.1 (00:00) 17.7 8.61 (18:30) 2.5 (18:30) 0.6 0 0 0.2 0.4
21-10-2020 23 (14:30) 14 (00:00) 18.5 11.67 (05:40) 4.17 (00:10) 0 0 0 0 0
20-10-2020 17.6 (16:50) 15 (00:00) 16.3 13.61 (23:50) 4.72 (19:30) 4.4 0 0.8 3.2 0.4
19-10-2020 21.2 (16:40) 7.5 (00:00) 14.4 10.28 (13:00) 3.33 (12:40) 0 0 0 0 0
18-10-2020 19.8 (15:40) 1.9 (00:00) 10.8 4.17 (23:40) 1.39 (23:30) 0 0 0 0 0
17-10-2020 18.6 (17:10) 0.8 (00:00) 9.7 3.89 (17:50) 1.67 (16:10) 0 0 0 0 0
16-10-2020 16.8 (15:40) 6.3 (00:00) 11.5 9.17 (03:00) 2.5 (00:50) 0 0 0 0 0
15-10-2020 16.3 (14:30) 5.9 (00:00) 11.1 10 (14:30) 2.78 (16:50) 0 0 0 0 0
14-10-2020 14.9 (14:00) 8.5 (00:00) 11.7 8.61 (12:00) 3.61 (13:10) 0 0 0 0 0
13-10-2020 18.6 (14:20) 8.3 (00:00) 13.5 8.89 (18:20) 4.17 (18:20) 0 0 0 0 0
12-10-2020 17.6 (16:00) 9.7 (00:00) 13.7 12.78 (15:10) 5.56 (14:50) 0 0 0 0 0
11-10-2020 16.8 (15:30) 9.1 (00:00) 12.9 11.39 (17:10) 4.17 (17:40) 0 0 0 0 0
10-10-2020 21.4 (13:00) 11.8 (00:00) 16.6 9.72 (15:20) 4.17 (17:40) 0 0 0 0 0
09-10-2020 25.7 (17:10) 12 (00:00) 18.9 3.33 (19:50) 1.39 (18:20) 0 0 0 0 0
08-10-2020 24.7 (16:50) 8.8 (00:00) 16.8 5.28 (11:50) 1.94 (11:50) 0 0 0 0 0
07-10-2020 23.3 (16:00) 12.4 (00:00) 17.8 9.17 (15:20) 3.89 (19:20) 0 0 0 0 0
06-10-2020 24 (15:40) 8.8 (00:00) 16.4 5 (17:30) 1.39 (03:20) 0 0 0 0 0
05-10-2020 19.9 (16:20) 6.4 (00:00) 13.1 6.67 (14:10) 3.06 (16:40) 0 0 0 0 0
04-10-2020 15.9 (14:20) 6.6 (00:00) 11.2 5.28 (15:00) 1.94 (12:30) 1.2 0 0 1.2 0
03-10-2020 17.7 (16:50) 6.2 (00:00) 12 7.78 (16:30) 2.22 (16:30) 1.8 0 1.6 0.2 0
02-10-2020 15.2 (17:10) 6.8 (00:00) 11 10 (17:50) 3.61 (11:10) 18.2 3.6 13.6 1 0
01-10-2020 22.7 (13:30) 11.5 (08:40) 17.1 5.56 (12:40) 1.67 (03:40) 0 0 0 0 0
30-09-2020 26.7 (16:40) 6 (00:00) 16.4 3.33 (22:50) 1.11 (23:10) 0 0 0 0 0

Gráficas

Temp. máximas Temp. mínimas Temp. medias Precipitaciones Rachas de viento máximas Velocidades máximas media en intervalos de 10 minutos

Datos horarios

Fecha y hora oficial Temperatura (ºC) Velocidad del viento (km/h) Dirección del viento Racha (km/h) Dirección de racha Precipitación (mm) Presión (hPa) Tendencia (hPa) Humedad (%)
2020-10-29 23:00:00 9.4 0 Calma 5 Este 0 -- -- 91
2020-10-29 22:00:00 9.7 0 Calma 4 Norte 0 -- -- 88
2020-10-29 21:00:00 10.7 2 Nordeste 6 Nordeste 0 -- -- 86
2020-10-29 20:00:00 11.8 0 Calma 4 Este 0 -- -- 83
2020-10-29 19:00:00 14 0 Calma 0 Calma 0 -- -- 76
2020-10-29 18:00:00 16.8 0 Calma 2 Nordeste 0 -- -- 68
2020-10-29 17:00:00 19.3 0 Calma 6 Noroeste 0 -- -- 58
2020-10-29 16:00:00 20.4 2 Este 6 Norte 0 -- -- 54
2020-10-29 15:00:00 20.2 3 Noroeste 9 Norte 0 -- -- 54
2020-10-29 14:00:00 19.5 3 Sudoeste 8 Sudoeste 0 -- -- 56
2020-10-29 13:00:00 17.8 3 Noroeste 8 Noroeste 0 -- -- 61
2020-10-29 12:00:00 15.8 3 Oeste 6 Sudoeste 0 -- -- 68
2020-10-29 11:00:00 12.9 3 Sudoeste 6 Sudoeste 0 -- -- 80
2020-10-29 10:00:00 8.8 0 Calma 3 Sudoeste 0 -- -- 98
2020-10-29 09:00:00 5.8 0 Calma 4 Nordeste 0 -- -- 96
2020-10-29 08:00:00 5.1 0 Calma 4 Nordeste 0 -- -- 94
2020-10-29 07:00:00 5.6 0 Calma 2 Norte 0 -- -- 94
2020-10-29 06:00:00 6.2 0 Calma 2 Nordeste 0 -- -- 94
2020-10-29 05:00:00 6.9 0 Calma 3 Norte 0 -- -- 94
2020-10-29 04:00:00 7.7 0 Calma 0 Calma 0 -- -- 94
2020-10-29 03:00:00 8.3 0 Calma 4 Sudoeste 0 -- -- 94
2020-10-29 02:00:00 8.6 3 Sudoeste 5 Sudoeste 0 -- -- 93
2020-10-29 01:00:00 9.1 0 Calma 3 Sudeste 0 -- -- 92
2020-10-29 00:00:00 9.2 0 Calma 3 Nordeste 0 -- -- 92
2020-10-28 23:00:00 9.4 0 Calma 2 Norte 0 -- -- 90
2020-10-28 22:00:00 10.5 0 Calma 2 Norte 0 -- -- 88
2020-10-28 21:00:00 11.8 0 Calma 4 Norte 0 -- -- 84
2020-10-28 20:00:00 13.6 3 Norte 5 Norte 0 -- -- 77
2020-10-28 19:00:00 14.7 0 Calma 0 Calma 0 -- -- 77
2020-10-28 18:00:00 17.2 0 Calma 2 Sudoeste 0 -- -- 68
2020-10-28 17:00:00 19.1 0 Calma 9 Norte 0 -- -- 62
2020-10-28 16:00:00 20.1 3 Norte 8 Norte 0 -- -- 53
2020-10-28 15:00:00 20 2 Sudoeste 7 Sudoeste 0 -- -- 56
2020-10-28 14:00:00 18.9 3 Oeste 7 Sudoeste 0 -- -- 59
2020-10-28 13:00:00 17 2 Oeste 8 Sudoeste 0 -- -- 65
2020-10-28 12:00:00 14.9 3 Noroeste 5 Norte 0 -- -- 73
2020-10-28 11:00:00 11.8 0 Calma 4 Nordeste 0 -- -- 82
2020-10-28 10:00:00 9.5 3 Nordeste 7 Nordeste 0 -- -- 90
2020-10-28 09:00:00 7.6 0 Calma 4 Nordeste 0 -- -- 96
2020-10-28 08:00:00 6.4 0 Calma 3 Nordeste 0 -- -- 95
2020-10-28 07:00:00 6.3 2 Nordeste 6 Nordeste 0 -- -- 94
2020-10-28 06:00:00 6.3 0 Calma 5 Nordeste 0 -- -- 94
2020-10-28 05:00:00 6.5 0 Calma 2 Nordeste 0 -- -- 93
2020-10-28 04:00:00 7 0 Calma 4 Nordeste 0 -- -- 93
2020-10-28 03:00:00 7.4 0 Calma 4 Nordeste 0 -- -- 92
2020-10-28 02:00:00 7.8 2 Norte 5 Nordeste 0 -- -- 91
2020-10-28 01:00:00 8.5 0 Calma 5 Nordeste 0 -- -- 89
2020-10-28 00:00:00 9.3 0 Calma 6 Nordeste 0 -- -- 87
2020-10-27 23:00:00 9.7 2 Nordeste 6 Nordeste 0 -- -- 86
2020-10-27 22:00:00 10 3 Nordeste 6 Norte 0 -- -- 84
2020-10-27 21:00:00 10.2 0 Calma 6 Norte 0 -- -- 83
2020-10-27 20:00:00 11.5 0 Calma 5 Nordeste 0 -- -- 78
2020-10-27 19:00:00 13.1 0 Calma 2 Nordeste 0 -- -- 73
2020-10-27 18:00:00 14.5 0 Calma 5 Norte 0 -- -- 68
2020-10-27 17:00:00 15.6 3 Nordeste 9 Nordeste 0 -- -- 59
2020-10-27 16:00:00 16.2 0 Calma 10 Noroeste 0 -- -- 54
2020-10-27 15:00:00 15.6 2 Norte 5 Norte 0 -- -- 54
2020-10-27 14:00:00 15 0 Calma 9 Noroeste 0 -- -- 58
2020-10-27 13:00:00 14.6 4 Norte 8 Noroeste 0 -- -- 57
2020-10-27 12:00:00 12.4 3 Norte 6 Norte 0 -- -- 66
2020-10-27 11:00:00 9.2 0 Calma 5 Nordeste 0 -- -- 82
2020-10-27 10:00:00 6.7 3 Nordeste 6 Norte 0 -- -- 97
2020-10-27 09:00:00 4 0 Calma 4 Nordeste 0 -- -- 96
2020-10-27 08:00:00 2.6 0 Calma 3 Nordeste 0 -- -- 96
2020-10-27 07:00:00 2.6 0 Calma 4 Este 0 -- -- 95
2020-10-27 06:00:00 3.4 0 Calma 3 Nordeste 0 -- -- 96
2020-10-27 05:00:00 3 0 Calma 2 Sudeste 0 -- -- 94
2020-10-27 04:00:00 3.1 0 Calma 4 Sudoeste 0 -- -- 94
2020-10-27 03:00:00 3.5 0 Calma 2 Norte 0 -- -- 93
2020-10-27 02:00:00 4.1 0 Calma 3 Sudeste 0 -- -- 93
2020-10-27 01:00:00 4.9 0 Calma 2 Sudoeste 0 -- -- 92
2020-10-27 00:00:00 5.6 0 Calma 2 Norte 0 -- -- 92
2020-10-26 23:00:00 6.2 0 Calma 3 Sudoeste 0 -- -- 91
2020-10-26 22:00:00 7 0 Calma 5 Sudoeste 0 -- -- 89
2020-10-26 21:00:00 7.8 2 Sudoeste 9 Sudoeste 0 -- -- 87
2020-10-26 20:00:00 8.3 0 Calma 2 Sudoeste 0 -- -- 86
2020-10-26 19:00:00 9.7 0 Calma 5 Norte 0 -- -- 81
2020-10-26 18:00:00 11.5 0 Calma 18 Norte 0 -- -- 73
2020-10-26 17:00:00 12.4 13 Norte 40 Norte 0 -- -- 70
2020-10-26 16:00:00 14.5 3 Oeste 23 Noroeste 0 -- -- 57
2020-10-26 15:00:00 14.3 6 Oeste 22 Oeste 0 -- -- 54
2020-10-26 14:00:00 15 7 Oeste 28 Oeste 0 -- -- 55
2020-10-26 13:00:00 14.1 6 Oeste 28 Noroeste 0 -- -- 56
2020-10-26 12:00:00 12.9 8 Oeste 25 Noroeste 0 -- -- 61
2020-10-26 11:00:00 11.5 7 Oeste 22 Noroeste 0 -- -- 68
2020-10-26 10:00:00 9.6 5 Oeste 17 Noroeste 0 -- -- 74
2020-10-26 09:00:00 8.1 3 Oeste 15 Noroeste 0 -- -- 80
2020-10-26 08:00:00 7.2 3 Oeste 12 Noroeste 0 -- -- 83
2020-10-26 07:00:00 7.2 0 Calma 5 Oeste 0 -- -- 83
2020-10-26 06:00:00 8.1 3 Oeste 16 Noroeste 0 -- -- 80
2020-10-26 05:00:00 8.2 2 Oeste 10 Sudoeste 0 -- -- 81
2020-10-26 04:00:00 8 2 Oeste 10 Sudoeste 0 -- -- 86
2020-10-26 03:00:00 8.5 3 Oeste 10 Noroeste 0 -- -- 83
2020-10-26 02:00:00 9.3 2 Sudoeste 10 Norte 0 -- -- 82
2020-10-26 01:00:00 10.4 4 Oeste 12 Oeste 0 -- -- 81
2020-10-26 00:00:00 11.5 2 Oeste 16 Noroeste 0 -- -- 81
2020-10-25 23:00:00 12.6 4 Sudoeste 13 Noroeste 0.2 -- -- 91
2020-10-25 22:00:00 12.9 2 Este 10 Norte 0.6 -- -- 92
2020-10-25 21:00:00 13.5 5 Norte 14 Nordeste 2.4 -- -- 88
2020-10-25 20:00:00 14.4 4 Sudoeste 14 Sudoeste 0 -- -- 84
2020-10-25 19:00:00 15.3 0 Calma 34 Sudoeste 0 -- -- 81
2020-10-25 18:00:00 17.2 6 Sur 21 Sudoeste 0 -- -- 61
2020-10-25 17:00:00 17.1 5 Sur 19 Sudoeste 0 -- -- 59
2020-10-25 16:00:00 17.1 8 Sur 26 Sudoeste 0 -- -- 58
2020-10-25 15:00:00 17.3 10 Sudoeste 25 Sudoeste 0 -- -- 57
2020-10-25 14:00:00 17.5 10 Sur 24 Sur 0 -- -- 55
2020-10-25 13:00:00 18 12 Sudoeste 25 Sudoeste 0 -- -- 54
2020-10-25 12:00:00 17.4 6 Sudoeste 23 Sur 0 -- -- 57
2020-10-25 11:00:00 16 10 Sudoeste 26 Sudoeste 0 -- -- 62
2020-10-25 10:00:00 13.6 4 Sur 15 Sudoeste 0 -- -- 74
2020-10-25 09:00:00 9.8 5 Nordeste 14 Este 0 -- -- 84
2020-10-25 08:00:00 8.8 4 Nordeste 13 Nordeste 0 -- -- 86
2020-10-25 07:00:00 8.9 3 Norte 12 Nordeste 0 -- -- 86
2020-10-25 06:00:00 9.1 2 Este 11 Nordeste 0 -- -- 85
2020-10-25 05:00:00 9.7 4 Nordeste 10 Norte 0 -- -- 84
2020-10-25 04:00:00 8.9 0 Calma 14 Este 0 -- -- 87
2020-10-25 03:00:00 9.4 4 Nordeste 14 Nordeste 0 -- -- 83
2020-10-25 02:00:00 9.2 3 Nordeste 9 Nordeste 0 -- -- 87
2020-10-25 01:00:00 10 3 Nordeste 14 Nordeste 0 -- -- 84
2020-10-25 00:00:00 10.3 0 Calma 10 Norte 0 -- -- 85
2020-10-24 23:00:00 10.6 3 Nordeste 7 Nordeste 0 -- -- 84
2020-10-24 22:00:00 11.5 0 Calma 6 Nordeste 0 -- -- 81
2020-10-24 21:00:00 12.4 3 Nordeste 8 Nordeste 0 -- -- 77
2020-10-24 20:00:00 14.3 2 Nordeste 10 Este 0 -- -- 72
2020-10-24 19:00:00 16.3 3 Nordeste 7 Este 0 -- -- 64
2020-10-24 18:00:00 17.9 2 Este 12 Norte 0 -- -- 58
2020-10-24 17:00:00 19.3 3 Nordeste 8 Norte 0 -- -- 52
2020-10-24 16:00:00 19.3 3 Nordeste 9 Nordeste 0 -- -- 49
2020-10-24 15:00:00 18.3 3 Norte 8 Sudoeste 0 -- -- 49
2020-10-24 14:00:00 17.2 3 Oeste 6 Sudeste 0 -- -- 60
2020-10-24 13:00:00 15.6 2 Sur 7 Sudoeste 0 -- -- 65
2020-10-24 12:00:00 13.1 2 Sur 6 Nordeste 0 -- -- 75
2020-10-24 11:00:00 9.7 4 Nordeste 8 Nordeste 0 -- -- 93
2020-10-24 10:00:00 6.2 2 Nordeste 6 Nordeste 0 -- -- 96
2020-10-24 09:00:00 4.8 0 Calma 4 Nordeste 0 -- -- 95
2020-10-24 08:00:00 4.9 0 Calma 3 Nordeste 0 -- -- 94
2020-10-24 07:00:00 5.3 0 Calma 4 Nordeste 0 -- -- 94
2020-10-24 06:00:00 5.8 0 Calma 4 Nordeste 0 -- -- 94
2020-10-24 05:00:00 5.9 2 Nordeste 4 Nordeste 0 -- -- 93
2020-10-24 04:00:00 6.3 0 Calma 3 Nordeste 0 -- -- 92
2020-10-24 03:00:00 6.9 0 Calma 2 Nordeste 0 -- -- 91
2020-10-24 02:00:00 7.4 0 Calma 2 Nordeste 0 -- -- 90
2020-10-24 01:00:00 8.2 0 Calma 2 Nordeste 0 -- -- 87
2020-10-24 00:00:00 9.1 0 Calma 2 Nordeste 0 -- -- 85
2020-10-23 23:00:00 10.3 0 Calma 4 Sudoeste 0 -- -- 81
2020-10-23 22:00:00 11.5 0 Calma 3 Noroeste 0 -- -- 75
2020-10-23 21:00:00 12.9 0 Calma 3 Sudoeste 0 -- -- 69
2020-10-23 20:00:00 14.8 0 Calma 5 Oeste 0 -- -- 64
2020-10-23 19:00:00 16.9 2 Sudoeste 9 Noroeste 0 -- -- 55
2020-10-23 18:00:00 17.7 2 Nordeste 13 Noroeste 0 -- -- 61
2020-10-23 17:00:00 18.4 7 Norte 16 Norte 0 -- -- 54
2020-10-23 16:00:00 18.6 9 Norte 16 Norte 0 -- -- 54
2020-10-23 15:00:00 18.9 2 Este 11 Noroeste 0 -- -- 52
2020-10-23 14:00:00 19.7 3 Oeste 14 Sudoeste 0 -- -- 53
2020-10-23 13:00:00 17.8 4 Sudoeste 12 Sudoeste 0 -- -- 65
2020-10-23 12:00:00 15.6 5 Sudoeste 14 Sudoeste 0 -- -- 72
2020-10-23 11:00:00 14.6 4 Sudoeste 10 Sudoeste 0 -- -- 76
2020-10-23 10:00:00 12.5 0 Calma 8 Sur 0 -- -- 87
2020-10-23 09:00:00 12.6 4 Sudoeste 15 Sur 0 -- -- 89
2020-10-23 08:00:00 12.7 0 Calma 5 Sur 0 -- -- 95
2020-10-23 07:00:00 13.2 0 Calma 4 Este 0 -- -- 95
2020-10-23 06:00:00 13.4 2 Nordeste 6 Nordeste 0 -- -- 94
2020-10-23 05:00:00 13.5 3 Nordeste 7 Norte 0 -- -- 93
2020-10-23 04:00:00 13.8 2 Nordeste 7 Nordeste 0 -- -- 93
2020-10-23 03:00:00 14.3 3 Nordeste 8 Nordeste 0 -- -- 92
2020-10-23 02:00:00 14.6 3 Nordeste 12 Nordeste 0 -- -- 91
2020-10-23 01:00:00 14.7 2 Sudeste 12 Nordeste 0 -- -- 90
2020-10-23 00:00:00 14.9 4 Sudeste 18 Nordeste 0 -- -- 89
2020-10-22 23:00:00 15 4 Nordeste 18 Sur 0 -- -- 90
2020-10-22 22:00:00 15 6 Nordeste 21 Norte 0 -- -- 90
2020-10-22 21:00:00 15.4 5 Nordeste 24 Este 0 -- -- 90
2020-10-22 20:00:00 15.7 6 Este 21 Nordeste 0 -- -- 90
2020-10-22 19:00:00 16 5 Nordeste 31 Sudeste 0.4 -- -- 90
2020-10-22 18:00:00 18.4 4 Este 21 Este 0.2 -- -- 77
2020-10-22 17:00:00 19.6 5 Este 22 Sudeste 0 -- -- 68
2020-10-22 16:00:00 20 8 Este 28 Nordeste 0 -- -- 69
2020-10-22 15:00:00 20.5 7 Este 23 Sudeste 0 -- -- 67
2020-10-22 14:00:00 21 7 Este 24 Sudeste 0 -- -- 70
2020-10-22 13:00:00 18.6 5 Nordeste 19 Nordeste 0 -- -- 78
2020-10-22 12:00:00 17.1 6 Nordeste 17 Norte 0 -- -- 81
2020-10-22 11:00:00 16.7 5 Este 22 Nordeste 0 -- -- 81
2020-10-22 10:00:00 16.2 4 Este 17 Nordeste 0 -- -- 82
2020-10-22 09:00:00 15.7 4 Este 20 Nordeste 0 -- -- 84
2020-10-22 08:00:00 15.8 3 Este 9 Sudeste 0 -- -- 82
2020-10-22 07:00:00 16.1 3 Nordeste 14 Este 0 -- -- 80
2020-10-22 06:00:00 16.1 4 Nordeste 15 Sudeste 0 -- -- 80
2020-10-22 05:00:00 15.8 4 Nordeste 14 Nordeste 0 -- -- 82
2020-10-22 04:00:00 16.3 4 Este 13 Nordeste 0 -- -- 78
2020-10-22 03:00:00 15.6 3 Nordeste 10 Este 0 -- -- 76
2020-10-22 02:00:00 15.4 4 Nordeste 10 Este 0 -- -- 77
2020-10-22 01:00:00 14.9 3 Nordeste 10 Nordeste 0 -- -- 80
2020-10-22 00:00:00 14.1 0 Calma 0 Calma 0 -- -- 81
2020-10-21 23:00:00 14.4 0 Calma 2 Nordeste 0 -- -- 81
2020-10-21 22:00:00 15.3 0 Calma 5 Norte 0 -- -- 79
2020-10-21 21:00:00 17 2 Sur 7 Sur 0 -- -- 73
2020-10-21 20:00:00 17.9 0 Calma 14 Sur 0 -- -- 69
2020-10-21 19:00:00 20 6 Sudoeste 15 Sudoeste 0 -- -- 61
2020-10-21 18:00:00 20.2 2 Sur 7 Sur 0 -- -- 64
2020-10-21 17:00:00 20.9 3 Sur 21 Sudoeste 0 -- -- 62
2020-10-21 16:00:00 21.2 10 Sudoeste 33 Sudoeste 0 -- -- 58
2020-10-21 15:00:00 22.5 6 Sudoeste 18 Sudoeste 0 -- -- 48
2020-10-21 14:00:00 22.3 5 Sudeste 17 Este 0 -- -- 50
2020-10-21 13:00:00 22.5 4 Sudeste 19 Nordeste 0 -- -- 55
2020-10-21 12:00:00 21.3 5 Este 17 Este 0 -- -- 64
2020-10-21 11:00:00 19.4 5 Sudeste 18 Nordeste 0 -- -- 67
2020-10-21 10:00:00 16.3 3 Este 13 Sudeste 0 -- -- 81
2020-10-21 09:00:00 15.7 4 Este 22 Este 0 -- -- 82
2020-10-21 08:00:00 16 6 Este 18 Sudeste 0 -- -- 82
2020-10-21 07:00:00 16.5 7 Nordeste 28 Nordeste 0 -- -- 80
2020-10-21 06:00:00 17 9 Este 42 Este 0 -- -- 76
2020-10-21 05:00:00 16.9 8 Este 28 Nordeste 0 -- -- 77
2020-10-21 04:00:00 16.8 9 Este 29 Este 0 -- -- 78
2020-10-21 03:00:00 16.8 10 Este 40 Este 0 -- -- 77
2020-10-21 02:00:00 16.6 14 Este 42 Este 0 -- -- 77
2020-10-21 01:00:00 16.7 13 Este 37 Este 0 -- -- 74
2020-10-21 00:00:00 16.8 13 Este 49 Este 0 -- -- 75
2020-10-20 23:00:00 16.5 14 Este 46 Este 0 -- -- 75
2020-10-20 22:00:00 16.6 15 Este 45 Sudeste 0 -- -- 76
2020-10-20 21:00:00 16.4 14 Este 44 Este 0.2 -- -- 76
2020-10-20 20:00:00 16.6 15 Este 45 Nordeste 0 -- -- 73
2020-10-20 19:00:00 16.8 15 Este 46 Este 0.2 -- -- 75
2020-10-20 18:00:00 17.2 14 Este 42 Nordeste 0.2 -- -- 77
2020-10-20 17:00:00 17.6 13 Este 49 Este 0.2 -- -- 79
2020-10-20 16:00:00 16.9 13 Este 34 Este 0.2 -- -- 84
2020-10-20 15:00:00 16 9 Este 30 Nordeste 0.6 -- -- 90
2020-10-20 14:00:00 15.7 7 Este 25 Sudeste 0.8 -- -- 92
2020-10-20 13:00:00 15.2 8 Este 34 Este 1.2 -- -- 91
2020-10-20 12:00:00 15 10 Este 30 Nordeste 0.8 -- -- 89
2020-10-20 11:00:00 15.4 11 Este 35 Este 0 -- -- 85
2020-10-20 10:00:00 15.7 10 Este 41 Este 0 -- -- 80
2020-10-20 09:00:00 16 13 Este 38 Nordeste 0 -- -- 77
2020-10-20 08:00:00 16 11 Este 37 Este 0 -- -- 75
2020-10-20 07:00:00 15.8 12 Este 41 Este 0 -- -- 76
2020-10-20 06:00:00 15.5 8 Nordeste 37 Este 0 -- -- 76
2020-10-20 05:00:00 15.6 9 Este 34 Nordeste 0 -- -- 74
2020-10-20 04:00:00 15.2 9 Este 31 Nordeste 0 -- -- 73
2020-10-20 03:00:00 15.1 10 Este 34 Nordeste 0 -- -- 76
2020-10-20 02:00:00 15.2 9 Este 33 Nordeste 0 -- -- 75
2020-10-20 01:00:00 15.2 10 Este 33 Este 0 -- -- 76
2020-10-20 00:00:00 15.1 9 Nordeste 35 Nordeste 0 -- -- 76
2020-10-19 23:00:00 15.6 10 Este 36 Nordeste 0 -- -- 72
2020-10-19 22:00:00 16.1 9 Este 27 Nordeste 0 -- -- 66
2020-10-19 21:00:00 17 8 Este 31 Este 0 -- -- 65
2020-10-19 20:00:00 17.7 6 Nordeste 23 Nordeste 0 -- -- 64
2020-10-19 19:00:00 19.2 8 Este 31 Este 0 -- -- 58
2020-10-19 18:00:00 20.3 9 Este 30 Este 0 -- -- 53
2020-10-19 17:00:00 21.2 9 Este 32 Nordeste 0 -- -- 50
2020-10-19 16:00:00 20.6 10 Este 32 Este 0 -- -- 51
2020-10-19 15:00:00 20.1 9 Este 30 Nordeste 0 -- -- 54
2020-10-19 14:00:00 18.6 11 Este 31 Sudeste 0 -- -- 59
2020-10-19 13:00:00 16.8 10 Este 37 Este 0 -- -- 64
2020-10-19 12:00:00 15.6 9 Este 33 Nordeste 0 -- -- 64
2020-10-19 11:00:00 13.1 6 Este 21 Nordeste 0 -- -- 65
2020-10-19 10:00:00 10 3 Sur 15 Nordeste 0 -- -- 73
2020-10-19 09:00:00 7.7 3 Nordeste 9 Nordeste 0 -- -- 79
2020-10-19 08:00:00 7.9 2 Sudeste 9 Sudeste 0 -- -- 77
2020-10-19 07:00:00 8.2 3 Sur 15 Nordeste 0 -- -- 76
2020-10-19 06:00:00 8.6 5 Nordeste 14 Nordeste 0 -- -- 74
2020-10-19 05:00:00 9.1 0 Calma 10 Sudoeste 0 -- -- 73
2020-10-19 04:00:00 8.9 4 Nordeste 14 Este 0 -- -- 73
2020-10-19 03:00:00 8.6 5 Nordeste 13 Este 0 -- -- 73
2020-10-19 02:00:00 8.9 4 Nordeste 11 Este 0 -- -- 71
2020-10-19 01:00:00 9.4 4 Nordeste 9 Este 0 -- -- 70
2020-10-19 00:00:00 10 4 Nordeste 15 Nordeste 0 -- -- 66
2020-10-18 23:00:00 9.8 3 Nordeste 12 Norte 0 -- -- 66
2020-10-18 22:00:00 10.7 4 Nordeste 8 Nordeste 0 -- -- 68
2020-10-18 21:00:00 11.9 3 Nordeste 7 Este 0 -- -- 65
2020-10-18 20:00:00 13.8 2 Nordeste 4 Nordeste 0 -- -- 65
2020-10-18 19:00:00 17 0 Calma 3 Nordeste 0 -- -- 59
2020-10-18 18:00:00 18.7 0 Calma 5 Noroeste 0 -- -- 50
2020-10-18 17:00:00 19.6 2 Nordeste 8 Sudoeste 0 -- -- 43
2020-10-18 16:00:00 19.7 2 Sur 8 Sudoeste 0 -- -- 47
2020-10-18 15:00:00 19 2 Oeste 8 Sudoeste 0 -- -- 46
2020-10-18 14:00:00 17.6 3 Sudoeste 12 Sudoeste 0 -- -- 50
2020-10-18 13:00:00 15.2 3 Oeste 8 Oeste 0 -- -- 57
2020-10-18 12:00:00 11.8 2 Sudoeste 6 Oeste 0 -- -- 69
2020-10-18 11:00:00 8.1 2 Sudoeste 5 Sudoeste 0 -- -- 86
2020-10-18 10:00:00 3.8 0 Calma 4 Nordeste 0 -- -- 96
2020-10-18 09:00:00 2 0 Calma 3 Nordeste 0 -- -- 94
2020-10-18 08:00:00 1.9 0 Calma 2 Nordeste 0 -- -- 93
2020-10-18 07:00:00 2.3 0 Calma 2 Nordeste 0 -- -- 92
2020-10-18 06:00:00 2.7 0 Calma 2 Nordeste 0 -- -- 92
2020-10-18 05:00:00 3 0 Calma 2 Nordeste 0 -- -- 91
2020-10-18 04:00:00 3.5 0 Calma 3 Nordeste 0 -- -- 90
2020-10-18 03:00:00 4 0 Calma 2 Nordeste 0 -- -- 88
2020-10-18 02:00:00 4.8 0 Calma 0 Calma 0 -- -- 87
2020-10-18 01:00:00 5.6 0 Calma 2 Nordeste 0 -- -- 86
2020-10-18 00:00:00 6.7 0 Calma 2 Nordeste 0 -- -- 83
2020-10-17 23:00:00 8 0 Calma 2 Norte 0 -- -- 81
2020-10-17 22:00:00 9.6 0 Calma 2 Sudoeste 0 -- -- 75
2020-10-17 21:00:00 11.3 0 Calma 2 Norte 0 -- -- 68
2020-10-17 20:00:00 13.4 0 Calma 3 Sudoeste 0 -- -- 60
2020-10-17 19:00:00 16.1 2 Sudoeste 12 Oeste 0 -- -- 53
2020-10-17 18:00:00 17.6 4 Oeste 14 Sudoeste 0 -- -- 44
2020-10-17 17:00:00 18.5 3 Sudoeste 13 Sudoeste 0 -- -- 44
2020-10-17 16:00:00 18.1 3 Oeste 12 Sudoeste 0 -- -- 42
2020-10-17 15:00:00 17.2 3 Sudoeste 9 Sudoeste 0 -- -- 44
2020-10-17 14:00:00 15.6 2 Norte 12 Sudoeste 0 -- -- 53
2020-10-17 13:00:00 13.5 2 Sudoeste 8 Sudoeste 0 -- -- 60
2020-10-17 12:00:00 10.2 0 Calma 5 Norte 0 -- -- 71
2020-10-17 11:00:00 6.4 2 Norte 5 Norte 0 -- -- 83
2020-10-17 10:00:00 2.2 0 Calma 3 Nordeste 0 -- -- 95
2020-10-17 09:00:00 1 0 Calma 4 Sur 0 -- -- 94
2020-10-17 08:00:00 0.9 0 Calma 2 Norte 0 -- -- 92
2020-10-17 07:00:00 1.2 0 Calma 5 Nordeste 0 -- -- 91
2020-10-17 06:00:00 1.5 0 Calma 5 Nordeste 0 -- -- 91
2020-10-17 05:00:00 2.1 0 Calma 5 Nordeste 0 -- -- 90
2020-10-17 04:00:00 2.6 0 Calma 3 Este 0 -- -- 89
2020-10-17 03:00:00 3.5 0 Calma 3 Nordeste 0 -- -- 86
2020-10-17 02:00:00 4.6 0 Calma 5 Norte 0 -- -- 87
2020-10-17 01:00:00 5.3 0 Calma 2 Sudeste 0 -- -- 84
2020-10-17 00:00:00 6.3 0 Calma 4 Oeste 0 -- -- 81
2020-10-16 23:00:00 7 0 Calma 4 Sudoeste 0 -- -- 79
2020-10-16 22:00:00 8.3 0 Calma 5 Sudoeste 0 -- -- 72
2020-10-16 21:00:00 10.1 2 Sudoeste 10 Noroeste 0 -- -- 65
2020-10-16 20:00:00 12 2 Oeste 14 Norte 0 -- -- 57
2020-10-16 19:00:00 14 3 Oeste 27 Noroeste 0 -- -- 53
2020-10-16 18:00:00 15.2 6 Oeste 19 Oeste 0 -- -- 45
2020-10-16 17:00:00 16.5 5 Oeste 18 Oeste 0 -- -- 43
2020-10-16 16:00:00 16.7 5 Oeste 22 Sudoeste 0 -- -- 41
2020-10-16 15:00:00 16.7 5 Oeste 14 Oeste 0 -- -- 43
2020-10-16 14:00:00 16.2 5 Oeste 20 Oeste 0 -- -- 46
2020-10-16 13:00:00 14.9 5 Oeste 20 Norte 0 -- -- 48
2020-10-16 12:00:00 13.2 5 Oeste 20 Noroeste 0 -- -- 54
2020-10-16 11:00:00 11.2 5 Oeste 23 Oeste 0 -- -- 61
2020-10-16 10:00:00 8.6 5 Oeste 20 Noroeste 0 -- -- 74
2020-10-16 09:00:00 7 6 Oeste 22 Oeste 0 -- -- 81
2020-10-16 08:00:00 6.9 5 Oeste 19 Oeste 0 -- -- 80
2020-10-16 07:00:00 7.5 8 Oeste 32 Oeste 0 -- -- 78
2020-10-16 06:00:00 7.6 8 Oeste 22 Sudoeste 0 -- -- 79
2020-10-16 05:00:00 7.7 5 Oeste 18 Oeste 0 -- -- 80
2020-10-16 04:00:00 7.2 5 Oeste 23 Oeste 0 -- -- 79
2020-10-16 03:00:00 7.5 8 Oeste 33 Noroeste 0 -- -- 77
2020-10-16 02:00:00 7.4 6 Oeste 27 Oeste 0 -- -- 76
2020-10-16 01:00:00 7.7 5 Oeste 30 Noroeste 0 -- -- 74
2020-10-16 00:00:00 7.7 6 Oeste 26 Oeste 0 -- -- 74
2020-10-15 23:00:00 8.2 10 Oeste 25 Noroeste 0 -- -- 71
2020-10-15 22:00:00 8.7 9 Oeste 29 Oeste 0 -- -- 69
2020-10-15 21:00:00 9.5 5 Sudoeste 26 Oeste 0 -- -- 64
2020-10-15 20:00:00 10.7 5 Oeste 20 Oeste 0 -- -- 63
2020-10-15 19:00:00 12.5 5 Oeste 29 Noroeste 0 -- -- 54
2020-10-15 18:00:00 13.5 6 Oeste 31 Noroeste 0 -- -- 51
2020-10-15 17:00:00 14.6 10 Oeste 31 Oeste 0 -- -- 50
2020-10-15 16:00:00 15.6 6 Oeste 27 Oeste 0 -- -- 46
2020-10-15 15:00:00 15.8 7 Oeste 36 Norte 0 -- -- 46
2020-10-15 14:00:00 15.7 6 Noroeste 25 Noroeste 0 -- -- 42
2020-10-15 13:00:00 14.2 7 Oeste 26 Noroeste 0 -- -- 53
2020-10-15 12:00:00 12.2 7 Oeste 25 Noroeste 0 -- -- 62
2020-10-15 11:00:00 11 7 Oeste 19 Noroeste 0 -- -- 72
2020-10-15 10:00:00 9.4 4 Oeste 16 Noroeste 0 -- -- 77
2020-10-15 09:00:00 7.4 4 Oeste 15 Oeste 0 -- -- 82
2020-10-15 08:00:00 6 3 Sudoeste 8 Sudoeste 0 -- -- 89
2020-10-15 07:00:00 6.7 0 Calma 8 Noroeste 0 -- -- 85
2020-10-15 06:00:00 7.4 3 Oeste 10 Noroeste 0 -- -- 82
2020-10-15 05:00:00 7.6 3 Oeste 14 Oeste 0 -- -- 81
2020-10-15 04:00:00 7.9 3 Oeste 16 Oeste 0 -- -- 80
2020-10-15 03:00:00 8 3 Oeste 16 Noroeste 0 -- -- 80
2020-10-15 02:00:00 8.2 4 Oeste 18 Oeste 0 -- -- 79
2020-10-15 01:00:00 8.4 3 Sudoeste 11 Oeste 0 -- -- 78
2020-10-15 00:00:00 8.6 4 Oeste 18 Oeste 0 -- -- 77
2020-10-14 23:00:00 9 5 Oeste 18 Oeste 0 -- -- 79
2020-10-14 22:00:00 9.6 5 Oeste 21 Noroeste 0 -- -- 79
2020-10-14 21:00:00 10.2 3 Oeste 14 Noroeste 0 -- -- 79
2020-10-14 20:00:00 10.6 5 Oeste 17 Oeste 0 -- -- 74
2020-10-14 19:00:00 11.4 5 Oeste 22 Oeste 0 -- -- 68
2020-10-14 18:00:00 11.9 6 Oeste 24 Oeste 0 -- -- 66
2020-10-14 17:00:00 14 8 Oeste 26 Oeste 0 -- -- 58
2020-10-14 16:00:00 14.5 6 Noroeste 30 Norte 0 -- -- 53
2020-10-14 15:00:00 14.5 8 Oeste 30 Noroeste 0 -- -- 58
2020-10-14 14:00:00 14.9 7 Norte 26 Norte 0 -- -- 54
2020-10-14 13:00:00 13.6 10 Norte 31 Norte 0 -- -- 61
2020-10-14 12:00:00 13.5 8 Noroeste 31 Oeste 0 -- -- 58
2020-10-14 11:00:00 12.9 4 Noroeste 21 Noroeste 0 -- -- 64
2020-10-14 10:00:00 10.8 4 Noroeste 18 Noroeste 0 -- -- 72
2020-10-14 09:00:00 9.4 3 Sudoeste 8 Sudoeste 0 -- -- 80
2020-10-14 08:00:00 10 0 Calma 7 Noroeste 0 -- -- 83
2020-10-14 07:00:00 10 0 Calma 8 Noroeste 0 -- -- 81
2020-10-14 06:00:00 9.6 3 Oeste 10 Noroeste 0 -- -- 82
2020-10-14 05:00:00 9 0 Calma 6 Noroeste 0 -- -- 84
2020-10-14 04:00:00 9.8 2 Sudoeste 5 Oeste 0 -- -- 82
2020-10-14 03:00:00 11.1 0 Calma 8 Sudoeste 0 -- -- 77
2020-10-14 02:00:00 11.5 0 Calma 7 Oeste 0 -- -- 75
2020-10-14 01:00:00 12.2 2 Sudoeste 10 Oeste 0 -- -- 72
2020-10-14 00:00:00 12.5 3 Oeste 11 Oeste 0 -- -- 71
2020-10-13 23:00:00 12.8 3 Oeste 14 Oeste 0 -- -- 71
2020-10-13 22:00:00 12.8 3 Oeste 15 Noroeste 0 -- -- 70
2020-10-13 21:00:00 12.9 2 Sudoeste 9 Sudoeste 0 -- -- 69
2020-10-13 20:00:00 13.5 4 Norte 24 Norte 0 -- -- 65
2020-10-13 19:00:00 15.3 12 Norte 32 Norte 0 -- -- 59
2020-10-13 18:00:00 16.9 14 Norte 31 Noroeste 0 -- -- 52
2020-10-13 17:00:00 18 7 Norte 29 Norte 0 -- -- 51
2020-10-13 16:00:00 17.9 6 Norte 30 Norte 0 -- -- 49
2020-10-13 15:00:00 17.5 10 Norte 31 Norte 0 -- -- 50
2020-10-13 14:00:00 18.4 5 Norte 26 Norte 0 -- -- 55
2020-10-13 13:00:00 16.9 8 Norte 29 Norte 0 -- -- 62
2020-10-13 12:00:00 17.1 5 Oeste 18 Noroeste 0 -- -- 65
2020-10-13 11:00:00 14.8 3 Oeste 10 Oeste 0 -- -- 78
2020-10-13 10:00:00 10.4 3 Sudoeste 6 Sudoeste 0 -- -- 94
2020-10-13 09:00:00 9.1 0 Calma 9 Sudoeste 0 -- -- 92
2020-10-13 08:00:00 9.2 2 Oeste 8 Oeste 0 -- -- 94
2020-10-13 07:00:00 8.4 2 Sudoeste 10 Sudoeste 0 -- -- 93
2020-10-13 06:00:00 8.9 5 Sudoeste 11 Sudoeste 0 -- -- 91
2020-10-13 05:00:00 9.3 2 Sur 6 Sudoeste 0 -- -- 89
2020-10-13 04:00:00 -- -- -- -- -- -- -- -- --
2020-10-13 03:00:00 11.2 0 Calma 6 Sudoeste 0 -- -- 85
2020-10-13 02:00:00 11.8 0 Calma 6 Sudoeste 0 -- -- 78
2020-10-13 01:00:00 -- -- -- -- -- -- -- -- --
2020-10-13 00:00:00 12.1 2 Sur 14 Norte 0 -- -- 70
2020-10-12 23:00:00 12.7 6 Norte 17 Norte 0 -- -- 62
2020-10-12 22:00:00 12.7 6 Norte 17 Norte 0 -- -- 64
2020-10-12 21:00:00 12.6 3 Norte 21 Norte 0 -- -- 67
2020-10-12 20:00:00 12.9 5 Norte 27 Oeste 0 -- -- 66
2020-10-12 19:00:00 14 10 Norte 29 Noroeste 0 -- -- 63
2020-10-12 18:00:00 15.4 5 Oeste 26 Noroeste 0 -- -- 58
2020-10-12 17:00:00 16.9 8 Noroeste 40 Norte 0 -- -- 47
2020-10-12 16:00:00 17.6 12 Norte 46 Norte 0 -- -- 46
2020-10-12 15:00:00 17.1 15 Norte 39 Norte 0 -- -- 46
2020-10-12 14:00:00 17.2 9 Oeste 32 Norte 0 -- -- 47
2020-10-12 13:00:00 16.9 9 Norte 37 Noroeste 0 -- -- 48
2020-10-12 12:00:00 16 9 Norte 33 Norte 0 -- -- 51
2020-10-12 11:00:00 13.7 9 Norte 24 Norte 0 -- -- 64
2020-10-12 10:00:00 11 5 Oeste 18 Noroeste 0 -- -- 80
2020-10-12 09:00:00 9.8 6 Oeste 20 Noroeste 0 -- -- 84
2020-10-12 08:00:00 9.8 6 Oeste 16 Noroeste 0 -- -- 82
2020-10-12 07:00:00 9.8 4 Oeste 15 Oeste 0 -- -- 82
2020-10-12 06:00:00 9.8 4 Oeste 14 Sudoeste 0 -- -- 80
2020-10-12 05:00:00 9.9 4 Oeste 16 Noroeste 0 -- -- 81
2020-10-12 04:00:00 -- -- -- -- -- -- -- -- --
2020-10-12 03:00:00 10 4 Oeste 22 Noroeste 0 -- -- 80
2020-10-12 02:00:00 10.2 7 Oeste 22 Noroeste 0 -- -- 79
2020-10-12 01:00:00 10.1 5 Sudoeste 14 Oeste 0 -- -- 79
2020-10-12 00:00:00 10.1 3 Oeste 17 Oeste 0 -- -- 77
2020-10-11 23:00:00 10.4 5 Oeste 20 Oeste 0 -- -- 76
2020-10-11 22:00:00 10.8 5 Sudoeste 24 Oeste 0 -- -- 74
2020-10-11 21:00:00 -- -- -- -- -- -- -- -- --
2020-10-11 20:00:00 -- -- -- -- -- -- -- -- --
2020-10-11 19:00:00 12.8 9 Norte 29 Noroeste 0 -- -- 64
2020-10-11 18:00:00 13.6 14 Norte 41 Noroeste 0 -- -- 63
2020-10-11 17:00:00 15.3 10 Norte 37 Noroeste 0 -- -- 56
2020-10-11 16:00:00 15.6 9 Oeste 36 Norte 0 -- -- 56
2020-10-11 15:00:00 16.2 8 Norte 31 Oeste 0 -- -- 53
2020-10-11 14:00:00 15.9 7 Noroeste 29 Norte 0 -- -- 51
2020-10-11 13:00:00 15.8 9 Noroeste 30 Oeste 0 -- -- 52
2020-10-11 12:00:00 14.1 8 Oeste 24 Noroeste 0 -- -- 60
2020-10-11 11:00:00 13.1 6 Oeste 22 Noroeste 0 -- -- 61
2020-10-11 10:00:00 11 6 Oeste 25 Noroeste 0 -- -- 67
2020-10-11 09:00:00 9.5 5 Oeste 22 Sudoeste 0 -- -- 71
2020-10-11 08:00:00 9.2 4 Oeste 19 Oeste 0 -- -- 69
2020-10-11 07:00:00 9.9 6 Oeste 25 Oeste 0 -- -- 65
2020-10-11 06:00:00 10.4 6 Oeste 22 Norte 0 -- -- 61
2020-10-11 05:00:00 10.9 5 Noroeste 21 Noroeste 0 -- -- 63
2020-10-11 04:00:00 11.2 5 Oeste 20 Oeste 0 -- -- 66
2020-10-11 03:00:00 11.6 6 Norte 21 Oeste 0 -- -- 68
2020-10-11 02:00:00 11.6 5 Oeste 17 Noroeste 0 -- -- 73
2020-10-11 01:00:00 11.8 5 Oeste 21 Oeste 0 -- -- 73
2020-10-11 00:00:00 11.8 4 Sudeste 17 Noroeste 0 -- -- 73
2020-10-10 23:00:00 12.6 4 Sudoeste 24 Sudoeste 0 -- -- 69
2020-10-10 22:00:00 12.9 6 Oeste 29 Noroeste 0 -- -- 66
2020-10-10 21:00:00 13.4 5 Oeste 21 Sudoeste 0 -- -- 61
2020-10-10 20:00:00 14.6 7 Oeste 29 Noroeste 0 -- -- 62
2020-10-10 19:00:00 16.9 6 Oeste 31 Noroeste 0 -- -- 54
2020-10-10 18:00:00 18.2 11 Norte 35 Noroeste 0 -- -- 49
2020-10-10 17:00:00 19.8 12 Norte 35 Norte 0 -- -- 44
2020-10-10 16:00:00 20.3 8 Noroeste 35 Noroeste 0 -- -- 49
2020-10-10 15:00:00 20.8 11 Norte 28 Norte 0 -- -- 52
2020-10-10 14:00:00 19.9 6 Noroeste 28 Noroeste 0 -- -- 59
2020-10-10 13:00:00 21.4 10 Norte 31 Norte 0 -- -- 54
2020-10-10 12:00:00 19.8 6 Oeste 21 Norte 0 -- -- 59
2020-10-10 11:00:00 17.6 5 Norte 24 Oeste 0 -- -- 65
2020-10-10 10:00:00 14.5 3 Sudoeste 15 Noroeste 0 -- -- 79
2020-10-10 09:00:00 13.1 3 Oeste 10 Noroeste 0 -- -- 80
2020-10-10 08:00:00 13.1 2 Sudoeste 12 Sudoeste 0 -- -- 80
2020-10-10 07:00:00 13.4 2 Sudoeste 12 Oeste 0 -- -- 79
2020-10-10 06:00:00 13.5 3 Sudoeste 10 Noroeste 0 -- -- 80
2020-10-10 05:00:00 13.9 3 Oeste 14 Noroeste 0 -- -- 81
2020-10-10 04:00:00 14.1 3 Oeste 9 Noroeste 0 -- -- 83
2020-10-10 03:00:00 14.5 2 Oeste 9 Noroeste 0 -- -- 83
2020-10-10 02:00:00 15 2 Sudoeste 6 Oeste 0 -- -- 83
2020-10-10 01:00:00 15.4 2 Sudoeste 8 Sudoeste 0 -- -- 82
2020-10-10 00:00:00 16.1 2 Oeste 8 Oeste 0 -- -- 80
2020-10-09 23:00:00 16.9 2 Sudoeste 12 Noroeste 0 -- -- 78
2020-10-09 22:00:00 18.2 2 Sudoeste 9 Noroeste 0 -- -- 74
2020-10-09 21:00:00 20.1 3 Sudoeste 9 Noroeste 0 -- -- 70
2020-10-09 20:00:00 21.8 3 Oeste 12 Oeste 0 -- -- 62
2020-10-09 19:00:00 23 3 Sudoeste 10 Sudoeste 0 -- -- 64
2020-10-09 18:00:00 24.8 4 Sudoeste 12 Sudoeste 0 -- -- 57
2020-10-09 17:00:00 25.5 2 Oeste 8 Sudoeste 0 -- -- 57
2020-10-09 16:00:00 24.9 3 Noroeste 10 Sudoeste 0 -- -- 60
2020-10-09 15:00:00 23.6 2 Sudoeste 10 Sudoeste 0 -- -- 66
2020-10-09 14:00:00 22.6 3 Oeste 9 Sur 0 -- -- 67
2020-10-09 13:00:00 21 4 Sudoeste 8 Sudoeste 0 -- -- 71
2020-10-09 12:00:00 18.7 3 Sudoeste 6 Sudoeste 0 -- -- 82
2020-10-09 11:00:00 16.1 0 Calma 5 Nordeste 0 -- -- 96
2020-10-09 10:00:00 14.9 0 Calma 6 Nordeste 0 -- -- 97
2020-10-09 09:00:00 13.9 3 Nordeste 5 Norte 0 -- -- 96
2020-10-09 08:00:00 12.4 0 Calma 3 Nordeste 0 -- -- 94
2020-10-09 07:00:00 12.2 0 Calma 5 Nordeste 0 -- -- 91
2020-10-09 06:00:00 12.8 3 Nordeste 8 Norte 0 -- -- 91
2020-10-09 05:00:00 12.9 0 Calma 3 Norte 0 -- -- 90
2020-10-09 04:00:00 13.9 0 Calma 6 Nordeste 0 -- -- 87
2020-10-09 03:00:00 14.8 4 Nordeste 8 Nordeste 0 -- -- 83
2020-10-09 02:00:00 14.8 2 Nordeste 8 Nordeste 0 -- -- 84
2020-10-09 01:00:00 14.8 3 Nordeste 9 Nordeste 0 -- -- 82
2020-10-09 00:00:00 14.8 3 Nordeste 8 Nordeste 0 -- -- 82
2020-10-08 23:00:00 14.8 2 Nordeste 5 Nordeste 0 -- -- 83
2020-10-08 22:00:00 16 2 Nordeste 5 Norte 0 -- -- 79
2020-10-08 21:00:00 17.4 0 Calma 4 Nordeste 0 -- -- 74
2020-10-08 20:00:00 19.8 0 Calma 4 Nordeste 0 -- -- 67
2020-10-08 19:00:00 22.1 2 Nordeste 11 Nordeste 0 -- -- 57
2020-10-08 18:00:00 23.7 5 Nordeste 14 Nordeste 0 -- -- 48
2020-10-08 17:00:00 24.6 5 Nordeste 18 Norte 0 -- -- 49
2020-10-08 16:00:00 24.1 4 Este 17 Norte 0 -- -- 54
2020-10-08 15:00:00 23.4 5 Este 17 Nordeste 0 -- -- 55
2020-10-08 14:00:00 22.1 5 Este 19 Este 0 -- -- 59
2020-10-08 13:00:00 20.5 4 Este 15 Nordeste 0 -- -- 68
2020-10-08 12:00:00 18.4 5 Nordeste 19 Nordeste 0 -- -- 72
2020-10-08 11:00:00 14.4 3 Nordeste 10 Nordeste 0 -- -- 87
2020-10-08 10:00:00 12 3 Nordeste 10 Nordeste 0 -- -- 96
2020-10-08 09:00:00 9 0 Calma 4 Nordeste 0 -- -- 95
2020-10-08 08:00:00 8.9 2 Nordeste 5 Nordeste 0 -- -- 94
2020-10-08 07:00:00 9.5 2 Nordeste 5 Nordeste 0 -- -- 93
2020-10-08 06:00:00 10.4 0 Calma 4 Nordeste 0 -- -- 93
2020-10-08 05:00:00 11 0 Calma 3 Norte 0 -- -- 92
2020-10-08 04:00:00 11.9 2 Sudoeste 7 Sudoeste 0 -- -- 90
2020-10-08 03:00:00 12.2 3 Sur 7 Sur 0 -- -- 89
2020-10-08 02:00:00 13.3 2 Sudoeste 6 Sudoeste 0 -- -- 86
2020-10-08 01:00:00 14.2 2 Oeste 10 Sudoeste 0 -- -- 82
2020-10-08 00:00:00 14.2 2 Sur 9 Sudoeste 0 -- -- 83
2020-10-07 23:00:00 15.4 7 Sudoeste 13 Sudoeste 0 -- -- 78
2020-10-07 22:00:00 16.7 3 Oeste 13 Norte 0 -- -- 73
2020-10-07 21:00:00 17.6 5 Norte 27 Norte 0 -- -- 70
2020-10-07 20:00:00 18.8 12 Norte 29 Norte 0 -- -- 64
2020-10-07 19:00:00 20.3 12 Norte 32 Noroeste 0 -- -- 60
2020-10-07 18:00:00 21.7 13 Norte 30 Norte 0 -- -- 57
2020-10-07 17:00:00 22.7 13 Norte 30 Norte 0 -- -- 55
2020-10-07 16:00:00 23.3 11 Norte 33 Norte 0 -- -- 54
2020-10-07 15:00:00 22.4 9 Norte 26 Noroeste 0 -- -- 57
2020-10-07 14:00:00 22.2 6 Norte 25 Norte 0 -- -- 60
2020-10-07 13:00:00 21.9 4 Oeste 21 Noroeste 0 -- -- 64
2020-10-07 12:00:00 20.4 5 Oeste 19 Oeste 0 -- -- 70
2020-10-07 11:00:00 18.1 4 Oeste 12 Oeste 0 -- -- 78
2020-10-07 10:00:00 14.6 2 Sudoeste 9 Sudoeste 0 -- -- 96
2020-10-07 09:00:00 12.8 0 Calma 5 Sudoeste 0 -- -- 96
2020-10-07 08:00:00 12.8 0 Calma 6 Sudoeste 0 -- -- 96
2020-10-07 07:00:00 12.5 0 Calma 5 Sudoeste 0 -- -- 96
2020-10-07 06:00:00 12.7 2 Sur 5 Sudoeste 0 -- -- 95
2020-10-07 05:00:00 12.5 0 Calma 4 Sudoeste 0 -- -- 95
2020-10-07 04:00:00 12.5 0 Calma 2 Este 0 -- -- 94
2020-10-07 03:00:00 12.8 0 Calma 2 Sur 0 -- -- 92
2020-10-07 02:00:00 13.4 0 Calma 0 Calma 0 -- -- 91
2020-10-07 01:00:00 14 0 Calma 2 Norte 0 -- -- 89
2020-10-07 00:00:00 14.9 0 Calma 2 Nordeste 0 -- -- 88
2020-10-06 23:00:00 15.9 0 Calma 0 Calma 0 -- -- 85
2020-10-06 22:00:00 17 0 Calma 2 Oeste 0 -- -- 81
2020-10-06 21:00:00 18.5 0 Calma 6 Noroeste 0 -- -- 75
2020-10-06 20:00:00 19.6 2 Noroeste 5 Noroeste 0 -- -- 73
2020-10-06 19:00:00 21.6 0 Calma 6 Oeste 0 -- -- 68
2020-10-06 18:00:00 23.3 3 Oeste 18 Sudoeste 0 -- -- 58
2020-10-06 17:00:00 23.6 2 Oeste 17 Noroeste 0 -- -- 55
2020-10-06 16:00:00 23.7 3 Noroeste 15 Norte 0 -- -- 54
2020-10-06 15:00:00 23.5 3 Noroeste 10 Norte 0 -- -- 55
2020-10-06 14:00:00 22.1 5 Norte 14 Noroeste 0 -- -- 57
2020-10-06 13:00:00 20.7 3 Oeste 10 Sudoeste 0 -- -- 57
2020-10-06 12:00:00 18.3 2 Oeste 6 Sudoeste 0 -- -- 61
2020-10-06 11:00:00 14.9 3 Sudoeste 9 Sudoeste 0 -- -- 73
2020-10-06 10:00:00 12.2 3 Sudoeste 10 Sudoeste 0 -- -- 85
2020-10-06 09:00:00 10.4 0 Calma 2 Sur 0 -- -- 91
2020-10-06 08:00:00 10.3 0 Calma 3 Sudoeste 0 -- -- 88
2020-10-06 07:00:00 10.7 0 Calma 5 Nordeste 0 -- -- 87
2020-10-06 06:00:00 10.6 2 Nordeste 6 Nordeste 0 -- -- 83
2020-10-06 05:00:00 10.3 2 Nordeste 7 Nordeste 0 -- -- 84
2020-10-06 04:00:00 9.9 3 Nordeste 9 Norte 0 -- -- 83
2020-10-06 03:00:00 9.4 4 Nordeste 8 Sudeste 0 -- -- 84
2020-10-06 02:00:00 9.1 3 Nordeste 7 Nordeste 0 -- -- 87
2020-10-06 01:00:00 8.9 2 Nordeste 6 Nordeste 0 -- -- 88
2020-10-06 00:00:00 9.7 3 Nordeste 7 Nordeste 0 -- -- 86
2020-10-05 23:00:00 10 3 Nordeste 6 Nordeste 0 -- -- 86
2020-10-05 22:00:00 11.3 0 Calma 4 Nordeste 0 -- -- 81
2020-10-05 21:00:00 13.1 0 Calma 2 Este 0 -- -- 75
2020-10-05 20:00:00 15.3 0 Calma 9 Norte 0 -- -- 66
2020-10-05 19:00:00 18 5 Norte 16 Norte 0 -- -- 52
2020-10-05 18:00:00 19.1 4 Norte 19 Noroeste 0 -- -- 44
2020-10-05 17:00:00 19.7 8 Norte 22 Noroeste 0 -- -- 45
2020-10-05 16:00:00 19.7 6 Oeste 20 Noroeste 0 -- -- 47
2020-10-05 15:00:00 18.7 4 Oeste 24 Oeste 0 -- -- 53
2020-10-05 14:00:00 18 5 Oeste 21 Oeste 0 -- -- 53
2020-10-05 13:00:00 16.9 4 Oeste 16 Oeste 0 -- -- 61
2020-10-05 12:00:00 14.1 5 Sudoeste 13 Sudoeste 0 -- -- 72
2020-10-05 11:00:00 12.5 3 Oeste 12 Noroeste 0 -- -- 77
2020-10-05 10:00:00 9.6 0 Calma 5 Sudoeste 0 -- -- 97
2020-10-05 09:00:00 7.3 0 Calma 3 Sudoeste 0 -- -- 96
2020-10-05 08:00:00 6.8 0 Calma 3 Sudoeste 0 -- -- 96
2020-10-05 07:00:00 6.5 0 Calma 3 Sudoeste 0 -- -- 95
2020-10-05 06:00:00 6.7 0 Calma 2 Noroeste 0 -- -- 95
2020-10-05 05:00:00 6.7 0 Calma 3 Nordeste 0 -- -- 94
2020-10-05 04:00:00 7.2 0 Calma 4 Este 0 -- -- 94
2020-10-05 03:00:00 7.7 2 Nordeste 4 Norte 0 -- -- 95
2020-10-05 02:00:00 7.7 0 Calma 3 Nordeste 0 -- -- 94
2020-10-05 01:00:00 8.2 0 Calma 2 Nordeste 0 -- -- 93
2020-10-05 00:00:00 8.9 0 Calma 6 Sur 0 -- -- 93
2020-10-04 23:00:00 9.5 2 Sudoeste 5 Sudoeste 0 -- -- 93
2020-10-04 22:00:00 9.9 0 Calma 4 Sur 0 -- -- 91
2020-10-04 21:00:00 10.5 0 Calma 4 Nordeste 0 -- -- 89
2020-10-04 20:00:00 11.8 2 Sur 6 Sudoeste 0 -- -- 85
2020-10-04 19:00:00 13.3 2 Sudoeste 12 Sudoeste 0 -- -- 79
2020-10-04 18:00:00 14.1 3 Sudoeste 14 Noroeste 0.4 -- -- 77
2020-10-04 17:00:00 15.3 3 Sudoeste 14 Noroeste 0 -- -- 67
2020-10-04 16:00:00 14.9 4 Oeste 18 Norte 0 -- -- 72
2020-10-04 15:00:00 15.4 7 Norte 19 Noroeste 0.4 -- -- 73
2020-10-04 14:00:00 15.4 4 Este 10 Nordeste 0 -- -- 69
2020-10-04 13:00:00 13.3 2 Este 13 Norte 0.4 -- -- 83
2020-10-04 12:00:00 11.9 4 Nordeste 12 Este 0 -- -- 86
2020-10-04 11:00:00 10.7 3 Este 13 Nordeste 0 -- -- 88
2020-10-04 10:00:00 8.8 3 Nordeste 10 Nordeste 0 -- -- 92
2020-10-04 09:00:00 7.7 3 Nordeste 11 Nordeste 0 -- -- 93
2020-10-04 08:00:00 6.7 3 Este 9 Nordeste 0 -- -- 94
2020-10-04 07:00:00 6.7 3 Nordeste 10 Nordeste 0 -- -- 93
2020-10-04 06:00:00 6.8 3 Nordeste 12 Nordeste 0 -- -- 93
2020-10-04 05:00:00 7.1 3 Nordeste 9 Nordeste 0 -- -- 93
2020-10-04 04:00:00 7.5 2 Nordeste 5 Nordeste 0 -- -- 92
2020-10-04 03:00:00 8.6 0 Calma 2 Nordeste 0 -- -- 91
2020-10-04 02:00:00 9.5 0 Calma 3 Nordeste 0 -- -- 89
2020-10-04 01:00:00 10.8 0 Calma 3 Sur 0 -- -- 86
2020-10-04 00:00:00 11.9 0 Calma 6 Norte 0 -- -- 81
2020-10-03 23:00:00 12.3 3 Norte 8 Norte 0 -- -- 79
2020-10-03 22:00:00 12.4 0 Calma 2 Noroeste 0 -- -- 81
2020-10-03 21:00:00 13.5 0 Calma 3 Norte 0 -- -- 72
2020-10-03 20:00:00 14.7 0 Calma 6 Sudoeste 0 -- -- 66
2020-10-03 19:00:00 15.8 0 Calma 8 Noroeste 0 -- -- 56
2020-10-03 18:00:00 17.1 3 Noroeste 15 Norte 0 -- -- 53
2020-10-03 17:00:00 17.6 5 Oeste 28 Noroeste 0 -- -- 47
2020-10-03 16:00:00 16.7 8 Oeste 23 Noroeste 0 -- -- 49
2020-10-03 15:00:00 15 3 Oeste 13 Sudoeste 0 -- -- 65
2020-10-03 14:00:00 13.1 3 Norte 8 Noroeste 0 -- -- 71
2020-10-03 13:00:00 11.4 3 Norte 10 Norte 0.2 -- -- 79
2020-10-03 12:00:00 10.1 2 Sudoeste 8 Norte 0.6 -- -- 85
2020-10-03 11:00:00 9.8 3 Norte 7 Nordeste 0.4 -- -- 84
2020-10-03 10:00:00 8.9 2 Oeste 6 Sudoeste 0.6 -- -- 90
2020-10-03 09:00:00 7.9 3 Sudoeste 10 Sudoeste 0 -- -- 88
2020-10-03 08:00:00 6.9 0 Calma 5 Norte 0 -- -- 94
2020-10-03 07:00:00 6.3 0 Calma 4 Nordeste 0 -- -- 94
2020-10-03 06:00:00 6.4 0 Calma 2 Sur 0 -- -- 93
2020-10-03 05:00:00 6.7 0 Calma 5 Sudoeste 0 -- -- 92
2020-10-03 04:00:00 7.3 0 Calma 7 Sur 0 -- -- 91
2020-10-03 03:00:00 7.5 0 Calma 2 Sudeste 0 -- -- 91
2020-10-03 02:00:00 7.3 0 Calma 4 Nordeste 0 -- -- 89
2020-10-03 01:00:00 7.4 0 Calma 4 Nordeste 0 -- -- 88
2020-10-03 00:00:00 6.8 0 Calma 8 Sudoeste 0 -- -- 88
2020-10-02 23:00:00 7.5 0 Calma 4 Sudoeste 0 -- -- 83
2020-10-02 22:00:00 8.6 0 Calma 5 Sudoeste 0 -- -- 78
2020-10-02 21:00:00 10.4 2 Sudoeste 8 Norte 0 -- -- 68
2020-10-02 20:00:00 11.8 3 Norte 14 Sudoeste 0 -- -- 61
2020-10-02 19:00:00 13.5 6 Oeste 22 Noroeste 0 -- -- 54
2020-10-02 18:00:00 14.5 6 Noroeste 36 Oeste 0 -- -- 51
2020-10-02 17:00:00 15.1 10 Oeste 31 Oeste 0 -- -- 47
2020-10-02 16:00:00 14.5 4 Oeste 19 Noroeste 0 -- -- 64
2020-10-02 15:00:00 13 3 Sudoeste 16 Sudoeste 0 -- -- 75
2020-10-02 14:00:00 11 4 Oeste 15 Oeste 0 -- -- 78
2020-10-02 13:00:00 10.1 4 Oeste 17 Noroeste 1 -- -- 87
2020-10-02 12:00:00 10.6 6 Oeste 31 Oeste 2 -- -- 84
2020-10-02 11:00:00 12.5 5 Norte 18 Oeste 2.2 -- -- 88
2020-10-02 10:00:00 13.7 3 Oeste 29 Sudoeste 1.6 -- -- 87
2020-10-02 09:00:00 14.1 4 Sudoeste 26 Sudoeste 7.2 -- -- 92
2020-10-02 08:00:00 13.3 4 Sudeste 16 Este 0.4 -- -- 92
2020-10-02 07:00:00 13.3 4 Nordeste 12 Nordeste 0.2 -- -- 91
2020-10-02 06:00:00 13.2 4 Nordeste 9 Sudeste 1.8 -- -- 91
2020-10-02 05:00:00 13.4 5 Nordeste 10 Este 0.2 -- -- 90
2020-10-02 04:00:00 13.7 4 Nordeste 12 Sur 1.4 -- -- 89
2020-10-02 03:00:00 14.4 3 Este 11 Este 0.2 -- -- 83
2020-10-02 02:00:00 15 3 Este 13 Sudeste 0 -- -- 74
2020-10-02 01:00:00 14.1 2 Nordeste 8 Nordeste 0 -- -- 79
2020-10-02 00:00:00 13.4 0 Calma 8 Nordeste 0 -- -- 80
2020-10-01 23:00:00 13.8 3 Nordeste 9 Nordeste 0 -- -- 78
2020-10-01 22:00:00 14.5 2 Nordeste 5 Nordeste 0 -- -- 75
2020-10-01 21:00:00 16.1 0 Calma 2 Nordeste 0 -- -- 72
2020-10-01 20:00:00 18.1 0 Calma 2 Sur 0 -- -- 66
2020-10-01 19:00:00 20.2 0 Calma 6 Norte 0 -- -- 59
2020-10-01 18:00:00 21.4 3 Norte 13 Noroeste 0 -- -- 51
2020-10-01 17:00:00 22.2 4 Oeste 17 Noroeste 0 -- -- 50
2020-10-01 16:00:00 21.9 3 Oeste 13 Noroeste 0 -- -- 50
2020-10-01 15:00:00 21.7 4 Oeste 18 Noroeste 0 -- -- 52
2020-10-01 14:00:00 22.5 5 Norte 16 Norte 0 -- -- 51
2020-10-01 13:00:00 22.1 5 Oeste 20 Norte 0 -- -- 51
2020-10-01 12:00:00 21.3 5 Sudoeste 14 Oeste 0 -- -- 54
2020-10-01 11:00:00 18.9 4 Oeste 11 Oeste 0 -- -- 63
2020-10-01 10:00:00 14 2 Oeste 6 Noroeste 0 -- -- 85
2020-10-01 09:00:00 12.2 4 Norte 7 Norte 0 -- -- 86
2020-10-01 08:00:00 11.9 0 Calma 6 Nordeste 0 -- -- 85
2020-10-01 07:00:00 12.6 3 Nordeste 8 Este 0 -- -- 83
2020-10-01 06:00:00 13 3 Nordeste 9 Nordeste 0 -- -- 81
2020-10-01 05:00:00 13.7 4 Nordeste 15 Nordeste 0 -- -- 76
2020-10-01 04:00:00 14.6 5 Nordeste 15 Este 0 -- -- 67
2020-10-01 03:00:00 14.8 5 Nordeste 12 Este 0 -- -- 64
2020-10-01 02:00:00 14.4 4 Nordeste 10 Nordeste 0 -- -- 66
2020-10-01 01:00:00 15 3 Nordeste 9 Sudeste 0 -- -- 65
2020-10-01 00:00:00 15 3 Nordeste 9 Nordeste 0 -- -- 62
2020-09-30 23:00:00 15.5 4 Nordeste 12 Norte 0 -- -- 57
2020-09-30 22:00:00 15.7 2 Nordeste 5 Nordeste 0 -- -- 62
2020-09-30 21:00:00 17.8 0 Calma 5 Este 0 -- -- 56
2020-09-30 20:00:00 20.9 2 Norte 6 Nordeste 0 -- -- 54
2020-09-30 19:00:00 24 2 Nordeste 8 Nordeste 0 -- -- 44
2020-09-30 18:00:00 25.7 2 Este 9 Norte 0 -- -- 38
2020-09-30 17:00:00 26.6 3 Nordeste 8 Norte 0 -- -- 31
2020-09-30 16:00:00 26.2 2 Sudeste 9 Sudoeste 0 -- -- 37
2020-09-30 15:00:00 24.8 3 Sudoeste 9 Oeste 0 -- -- 36
2020-09-30 14:00:00 23.3 3 Sudoeste 9 Sudoeste 0 -- -- 38
2020-09-30 13:00:00 21 0 Calma 5 Sudoeste 0 -- -- 47
2020-09-30 12:00:00 18.3 2 Sur 5 Sudoeste 0 -- -- 54
2020-09-30 11:00:00 14.2 0 Calma 4 Nordeste 0 -- -- 64
2020-09-30 10:00:00 8.1 0 Calma 2 Sudoeste 0 -- -- 92
2020-09-30 09:00:00 6.1 0 Calma 4 Nordeste 0 -- -- 91
2020-09-30 08:00:00 6.2 0 Calma 3 Norte 0 -- -- 89
2020-09-30 07:00:00 6.7 0 Calma 3 Norte 0 -- -- 89
2020-09-30 06:00:00 7.3 0 Calma 3 Nordeste 0 -- -- 87
2020-09-30 05:00:00 7.9 0 Calma 6 Norte 0 -- -- 85
2020-09-30 04:00:00 8.4 2 Nordeste 5 Nordeste 0 -- -- 84
2020-09-30 03:00:00 8.9 0 Calma 5 Nordeste 0 -- -- 83
2020-09-30 02:00:00 9.4 0 Calma 5 Nordeste 0 -- -- 82
2020-09-30 01:00:00 10.1 0 Calma 6 Nordeste 0 -- -- 77
2020-09-30 00:00:00 10.9 0 Calma 8 Nordeste 0 -- -- 76